West Columbia, Texas
Current Conditions -  °F | °C
As of 11:39 PM on Saturday 22 Nov 2014 (Local Time) from KLBX Reporting Station
Thunderstorm Thunderstorm  
Wind Chill: 63°   Ceiling: 7500
Heat Index: 63°   Visibility: 6mi
Dew Point: 61°   Wind: 7mph
Humidity: 93%   Direction: 230°SW
Pressure: 29.75"   Gusts: NA
Location:  29.14°N, 95.65°W
Report Text: KLBX 230539Z AUTO 23006KT 6SM VCTS +RA BR BKN075 BKN090 OVC110 17/16 A2975 RMK AO2 LTG DSNT ALQDS TSE0457B02E33 P0013 T01720161
Loading
Personal Weather Stations






























Interactive Weather Map New forecast layout! Learn more

10-Day Weather Forecast

Advertisements
Track Severe Weather on mobile